Flight Track Log - Related Links

Times and Time Zones

All times are in EDT time to prevent confusion due to time zone crossing. See the FFT403 flight status page for this flight to view local times or setup timezone preferences in your user account.


Time Position Orientation Groundspeed Altitude Reporting Facility
EDT Latitude Longitude Course Direction KTS MPH feet Rate Location/Type
Thu 07:08:38 AM 41.7667 -87.7667 251° West 134 154 2,000  Level Chicago TRACON
Thu 07:09:38 AM 41.7500 -87.8333 251° West 183 211 3,700 2,108 Climbing Chicago TRACON
Thu 07:10:29 AM 41.7342 -87.8858 248° West 199 229 5,900 3,107 Climbing Chicago Center
Thu 07:11:30 AM 41.7458 -87.9689 281° West 224 258 9,500 2,951 Climbing Chicago Center
Thu 07:12:31 AM 41.7594 -88.0542 282° West 235 270 11,900 1,623 Climbing Chicago Center
Thu 07:13:32 AM 41.7722 -88.1425 281° West 241 277 12,800 1,770 Climbing Chicago Center
Thu 07:14:33 AM 41.7839 -88.2481 278° West 282 325 15,500 2,656 Climbing Chicago Center
Thu 07:15:34 AM 41.7875 -88.3544 273° West 290 334 18,200 2,656 Climbing Chicago Center
Thu 07:16:35 AM 41.7758 -88.4906 263° West 307 353 20,900 2,361 Climbing Chicago Center
Thu 07:17:36 AM 41.7681 -88.6083 265° West 319 367 23,000 1,951 Climbing Chicago Center
Thu 07:18:38 AM 41.7658 -88.7306 269° West 326 375 24,900 1,756 Climbing Chicago Center
Thu 07:19:39 AM 41.7614 -88.8558 267° West 337 388 26,600 1,574 Climbing Chicago Center
Thu 07:20:40 AM 41.7578 -88.9869 268° West 352 405 28,100 1,525 Climbing Chicago Center
Thu 07:21:41 AM 41.7522 -89.1211 267° West 363 418 29,700 1,475 Climbing Chicago Center
Thu 07:22:42 AM 41.7483 -89.2608 268° West 381 438 31,100 1,268 Climbing Chicago Center
Thu 07:23:44 AM 41.7439 -89.4000 268° West 378 435 32,300 1,317 Climbing Chicago Center
Thu 07:24:45 AM 41.7378 -89.5531 267° West 381 438 33,800 1,475 Climbing Chicago Center
Thu 07:25:46 AM 41.7319 -89.6925 267° West 378 435 35,300 1,328 Climbing Chicago Center
Thu 07:26:47 AM 41.7278 -89.8306 268° West 372 428 36,500 1,279 Climbing Chicago Center
Thu 07:27:48 AM 41.7217 -89.9656 267° West 368 423 37,900 732 Climbing Chicago Center
Thu 07:28:50 AM 41.7167 -90.0992 267° West 363 418 38,000 49 Climbing Chicago Center
Thu 07:29:51 AM 41.7097 -90.2658 267° West 374 430 38,000  Level Chicago Center
Thu 07:30:52 AM 41.7019 -90.4094 266° West 385 443 38,000  Level Chicago Center
Thu 07:31:53 AM 41.6958 -90.5486 267° West 377 434 38,000  Level Chicago Center
Thu 07:32:55 AM 41.6892 -90.6914 266° West 377 434 38,000  Level Chicago Center
Thu 07:33:56 AM 41.6819 -90.8292 266° West 375 432 38,000 -33 Level Chicago Center
Thu 07:35:00 AM 41.6667 -90.9753 270° West  Level FlightAware Approximate
Thu 07:35:59 AM 41.6678 -91.1044 270° West 374 430 37,900  Level Chicago Center
Thu 07:37:00 AM 41.6606 -91.2442 266° West 377 434 38,000 49 Climbing Chicago Center
Thu 07:38:02 AM 41.6528 -91.3844 266° West 380 437 38,000  Level Chicago Center
Thu 07:39:03 AM 41.6444 -91.5558 266° West 385 443 38,000  Level Chicago Center
Thu 07:40:04 AM 41.6367 -91.6983 266° West 385 443 38,000  Level Chicago Center
Thu 07:41:06 AM 41.6283 -91.8392 266° West 385 443 38,000 -49 Level Chicago Center
Thu 07:42:07 AM 41.6186 -91.9775 265° West 380 437 37,900  Descending Chicago Center
Thu 07:43:09 AM 41.6108 -92.1189 266° West 381 438 38,000 49 Climbing Chicago Center
Thu 07:44:10 AM 41.6022 -92.2617 265° West 384 442 38,000  Level Chicago Center
Thu 07:45:12 AM 41.5933 -92.4017 265° West 380 437 38,000  Level Chicago Center
Thu 07:46:13 AM 41.5847 -92.5414 265° West 380 437 38,000 -55 Level Chicago Center
Thu 07:47:01 AM 41.5758 -92.6686 265° West 379 436 37,900  Descending Minneapolis Center
Thu 07:48:02 AM 41.5672 -92.8044 265° West 374 430 38,000  Climbing Minneapolis Center
Thu 07:49:03 AM 41.5583 -92.9397 265° West 371 427 37,900  Descending Minneapolis Center
Thu 07:50:04 AM 41.5481 -93.0772 264° West 374 430 38,000 49 Climbing Minneapolis Center
Thu 07:51:05 AM 41.5394 -93.2103 265° West 368 423 38,000 -49 Level Minneapolis Center
Thu 07:52:06 AM 41.5269 -93.3725 264° West 370 426 37,900  Descending Minneapolis Center
Thu 07:53:07 AM 41.5172 -93.5069 265° West 369 425 38,000 49 Climbing Minneapolis Center
Thu 07:54:08 AM 41.5083 -93.6408 265° West 367 422 38,000  Level Minneapolis Center
Thu 07:55:09 AM 41.5014 -93.7483 265° West 368 423 38,000 -49 Level Minneapolis Center
Thu 07:56:10 AM 41.4883 -93.9114 264° West 371 427 37,900 -49 Descending Minneapolis Center
Thu 07:57:11 AM 41.4783 -94.0453 264° West 368 423 37,900 49 Level Minneapolis Center
Thu 07:58:13 AM 41.4678 -94.1811 264° West 370 426 38,000 49 Climbing Minneapolis Center
Thu 07:59:14 AM 41.4561 -94.3317 264° West 369 425 38,000  Level Minneapolis Center
Thu 08:00:15 AM 41.4453 -94.4661 264° West 368 423 38,000  Level Minneapolis Center
Thu 08:01:16 AM 41.4344 -94.6003 264° West 365 420 38,000 -49 Level Minneapolis Center
Thu 08:02:17 AM 41.4228 -94.7331 263° West 363 418 37,900 -49 Descending Minneapolis Center
Thu 08:03:18 AM 41.4103 -94.8678 263° West 365 420 37,900 49 Level Minneapolis Center
Thu 08:04:20 AM 41.4006 -95.0017 265° West 362 417 38,000 49 Climbing Minneapolis Center
Thu 08:05:21 AM 41.3878 -95.1372 263° West 366 421 38,000  Level Minneapolis Center
Thu 08:06:22 AM 41.3783 -95.2453 263° West 368 423 38,000  Level Minneapolis Center
Thu 08:07:23 AM 41.3617 -95.4350 263° West 368 423 38,000  Level Minneapolis Center
Thu 08:08:25 AM 41.3489 -95.5694 263° West 366 421 38,000  Level Minneapolis Center
Thu 08:09:26 AM 41.3375 -95.7008 263° West 365 420 38,000  Level Minneapolis Center
Thu 08:10:27 AM 41.3250 -95.8344 263° West 363 418 38,000  Level Minneapolis Center
Thu 08:11:29 AM 41.3133 -95.9669 263° West 363 418 38,000  Level Minneapolis Center
Thu 08:12:30 AM 41.2989 -96.1014 262° West 364 419 38,000  Level Minneapolis Center
Thu 08:13:31 AM 41.2850 -96.2333 262° West 363 418 38,000  Level Minneapolis Center
Thu 08:14:33 AM 41.2731 -96.3811 264° West 364 419 38,000  Level Minneapolis Center
Thu 08:15:34 AM 41.2600 -96.5156 263° West 365 420 38,000  Level Minneapolis Center
Thu 08:16:36 AM 41.2461 -96.6489 262° West 366 421 38,000  Level Minneapolis Center
Thu 08:17:37 AM 41.2322 -96.7822 262° West 365 420 38,000  Level Minneapolis Center
Thu 08:18:39 AM 41.2183 -96.9156 262° West 364 419 38,000  Level Minneapolis Center
Thu 08:19:40 AM 41.2047 -97.0481 262° West 363 418 38,000 -49 Level Minneapolis Center
Thu 08:20:42 AM 41.1878 -97.2056 262° West 360 414 37,900  Descending Minneapolis Center
Thu 08:21:43 AM 41.1736 -97.3361 262° West 358 412 38,000 49 Climbing Minneapolis Center
Thu 08:22:45 AM 41.1611 -97.4550 262° West 359 413 38,000  Level Minneapolis Center
Thu 08:23:46 AM 41.1472 -97.5861 262° West 360 414 38,000  Level Minneapolis Center
Thu 08:24:48 AM 41.1328 -97.7192 262° West 363 418 38,000  Level Minneapolis Center
Thu 08:25:49 AM 41.1147 -97.8781 261° West 363 418 38,000  Level Minneapolis Center
Thu 08:26:51 AM 41.1000 -98.0100 262° West 362 417 38,000  Level Minneapolis Center
Thu 08:27:53 AM 41.0847 -98.1414 261° West 361 415 38,000  Level Minneapolis Center
Thu 08:29:06 AM 41.0703 -98.2719 262° West 359 413 38,000  Level Minneapolis Center
Thu 08:30:08 AM 41.0517 -98.4392 262° West 359 413 38,000  Level Minneapolis Center
Thu 08:31:10 AM 41.0378 -98.5686 262° West 357 411 38,000  Level Minneapolis Center
Thu 08:32:11 AM 41.0242 -98.6975 262° West 354 407 38,000 -49 Level Minneapolis Center
Thu 08:33:13 AM 41.0086 -98.8239 261° West 351 404 37,900 -48 Descending Minneapolis Center
Thu 08:34:15 AM 40.9942 -98.9514 262° West 350 403 37,900 48 Level Minneapolis Center
Thu 08:35:17 AM 40.9789 -99.0767 261° West 349 402 38,000 49 Climbing Minneapolis Center
Thu 08:36:18 AM 40.9661 -99.2050 263° West 348 400 38,000  Level Minneapolis Center
Thu 08:37:16 AM 40.9517 -99.3286 261° West 342 394 38,000 -50 Level Denver Center
Thu 08:38:17 AM 40.9372 -99.4503 261° West 337 388 37,900  Descending Denver Center
Thu 08:39:18 AM 40.9228 -99.5725 261° West 336 387 38,000  Climbing Denver Center
Thu 08:40:19 AM 40.9061 -99.6950 260° West 337 388 37,900  Descending Denver Center
Thu 08:41:20 AM 40.8836 -99.8364 258° West 341 392 38,000 49 Climbing Denver Center
Thu 08:42:21 AM 40.8658 -99.9542 259° West 341 392 38,000  Level Denver Center
Thu 08:43:22 AM 40.8478 -100.0739 259° West 346 398 38,000  Level Denver Center
Thu 08:44:22 AM 40.8294 -100.1914 258° West 342 394 38,000  Level Denver Center
Thu 08:45:24 AM 40.8081 -100.3311 259° West 346 398 38,000  Level Denver Center
Thu 08:46:25 AM 40.7861 -100.4706 258° West 346 398 38,000  Level Denver Center
Thu 08:47:26 AM 40.7672 -100.5900 258° West 345 397 38,000  Level Denver Center
Thu 08:48:27 AM 40.7472 -100.7097 258° West 345 397 38,000  Level Denver Center
Thu 08:49:28 AM 40.7286 -100.8311 259° West 345 397 38,000  Level Denver Center
Thu 08:50:29 AM 40.7058 -100.9700 258° West 344 396 38,000 -49 Level Denver Center
Thu 08:51:30 AM 40.6869 -101.0872 258° West 342 394 37,900 -49 Descending Denver Center
Thu 08:52:31 AM 40.6672 -101.2056 258° West 345 397 37,900 49 Level Denver Center
Thu 08:53:32 AM 40.6447 -101.3453 258° West 349 402 38,000 49 Climbing Denver Center
Thu 08:54:33 AM 40.6242 -101.4642 257° West 348 400 38,000  Level Denver Center
Thu 08:55:34 AM 40.6050 -101.5844 258° West 349 402 38,000  Level Denver Center
Thu 08:56:35 AM 40.5806 -101.7236 257° West 350 403 38,000  Level Denver Center
Thu 08:57:36 AM 40.5606 -101.8442 258° West 352 405 38,000  Level Denver Center
Thu 08:58:37 AM 40.5394 -101.9625 257° West 349 402 38,000  Level Denver Center
Thu 08:59:38 AM 40.5169 -102.1042 258° West 354 407 38,000 -49 Level Denver Center
Thu 09:00:39 AM 40.4969 -102.2219 257° West 349 402 37,900 -49 Descending Denver Center
Thu 09:01:40 AM 40.4753 -102.3411 257° West 349 402 37,900 49 Level Denver Center
Thu 09:02:41 AM 40.4517 -102.4811 258° West 351 404 38,000 49 Climbing Denver Center
Thu 09:03:42 AM 40.4283 -102.6011 256° West 355 409 38,000  Level Denver Center
Thu 09:04:43 AM 40.4072 -102.7267 258° West 353 406 38,000 -590 Level Denver Center
Thu 09:05:44 AM 40.3833 -102.8542 256° West 356 410 36,800 -2,164 Descending Denver Center
Thu 09:06:45 AM 40.3606 -102.9817 257° West 356 410 33,600 -2,552 Descending Denver Center
Thu 09:07:58 AM 40.3369 -103.1119 257° West 361 415 31,100 -2,507 Descending Denver Center
Thu 09:08:59 AM 40.3061 -103.2783 256° West 348 400 28,000 -2,656 Descending Denver Center
Thu 09:10:00 AM 40.2844 -103.4006 257° West 344 396 25,700 -2,213 Descending Denver Center
Thu 09:11:01 AM 40.2625 -103.5197 256° West 337 388 23,500 -2,213 Descending Denver Center
Thu 09:12:02 AM 40.2403 -103.6389 256° West 334 384 21,200 -2,164 Descending Denver Center
Thu 09:13:03 AM 40.2186 -103.7611 257° West 343 395 19,100 -1,525 Descending Denver Center
Thu 09:14:04 AM 40.2003 -103.8717 258° West 304 350 18,100 -1,131 Descending Denver Center
Thu 09:15:05 AM 40.1992 -103.9786 269° West 302 348 16,800 -1,475 Descending Denver Center
Thu 09:16:06 AM 40.1492 -104.0667 233° Southwest 304 350 15,100 -1,721 Descending Denver Center
Thu 09:17:07 AM 40.0942 -104.1447 227° Southwest 299 344 13,300 -1,934 Descending Denver Center
Thu 09:18:07 AM 40.0228 -104.2164 218° Southwest 303 349 11,200 -1,636 Descending Denver Center
Thu 09:19:08 AM 39.9564 -104.2811 217° Southwest 296 341 10,000 -934 Descending Denver Center
Thu 09:20:09 AM 39.9244 -104.3625 243° Southwest 244 281 9,300 -879 Descending Denver Center
Thu 09:21:04 AM 39.9000 -104.4333 246° West 210 242 8,300 -1,091 Descending Denver TRACON
Thu 09:22:10 AM 39.8833 -104.5000 252° West 189 217 7,100 -952 Descending Denver TRACON
Thu 09:23:10 AM 39.8833 -104.5500 270° West 152 175 6,300 -800 Descending Denver TRACON
Thu 09:24:10 AM 39.8833 -104.6000 270° West 127 146 5,500 -484 Descending Denver TRACON
Thu 09:25:14 AM 39.8769 -104.6453 260° West 117 135 5,300 -188 Descending Denver Center
Thu 09:27:00 AM 39.8500 -104.6667 255° West  Level FlightAware Approximate

Login

Don't have an account? Register now (free) for customized features, flight alerts, and more!